sensor_id;sensor_type;location;lat;lon;timestamp;temperature;humidity
37974;DHT22;23796;51.458;7.000;2022-07-09T00:00:09;19.10;99.90
37974;DHT22;23796;51.458;7.000;2022-07-09T00:02:35;19.10;99.90
37974;DHT22;23796;51.458;7.000;2022-07-09T00:05:01;19.10;99.90
37974;DHT22;23796;51.458;7.000;2022-07-09T00:07:29;19.10;99.90
37974;DHT22;23796;51.458;7.000;2022-07-09T00:09:57;19.10;99.90
37974;DHT22;23796;51.458;7.000;2022-07-09T00:12:22;19.00;99.90
37974;DHT22;23796;51.458;7.000;2022-07-09T00:14:48;19.00;99.90
37974;DHT22;23796;51.458;7.000;2022-07-09T00:17:16;19.00;99.90
37974;DHT22;23796;51.458;7.000;2022-07-09T00:19:42;19.00;99.90
37974;DHT22;23796;51.458;7.000;2022-07-09T00:22:10;19.00;99.90
37974;DHT22;23796;51.458;7.000;2022-07-09T00:24:35;18.90;99.90
37974;DHT22;23796;51.458;7.000;2022-07-09T00:27:01;18.90;99.90
37974;DHT22;23796;51.458;7.000;2022-07-09T00:29:29;18.90;99.90
37974;DHT22;23796;51.458;7.000;2022-07-09T00:31:55;18.90;99.90
37974;DHT22;23796;51.458;7.000;2022-07-09T00:34:21;18.90;99.90
37974;DHT22;23796;51.458;7.000;2022-07-09T00:36:46;18.80;99.90
37974;DHT22;23796;51.458;7.000;2022-07-09T00:39:18;18.80;99.90
37974;DHT22;23796;51.458;7.000;2022-07-09T00:41:46;18.70;99.90
37974;DHT22;23796;51.458;7.000;2022-07-09T00:44:14;18.70;99.90
37974;DHT22;23796;51.458;7.000;2022-07-09T00:46:40;18.60;99.90
37974;DHT22;23796;51.458;7.000;2022-07-09T00:49:05;18.50;99.90
37974;DHT22;23796;51.458;7.000;2022-07-09T00:51:36;18.50;99.90
37974;DHT22;23796;51.458;7.000;2022-07-09T00:54:05;18.40;99.90
37974;DHT22;23796;51.458;7.000;2022-07-09T00:56:31;18.40;99.90
37974;DHT22;23796;51.458;7.000;2022-07-09T00:58:58;18.40;99.90
37974;DHT22;23796;51.458;7.000;2022-07-09T01:01:27;18.30;99.90
37974;DHT22;23796;51.458;7.000;2022-07-09T01:03:55;18.30;99.90
37974;DHT22;23796;51.458;7.000;2022-07-09T01:06:20;18.30;99.90
37974;DHT22;23796;51.458;7.000;2022-07-09T01:08:46;18.30;99.90
37974;DHT22;23796;51.458;7.000;2022-07-09T01:11:11;18.20;99.90
37974;DHT22;23796;51.458;7.000;2022-07-09T01:13:39;18.30;99.90
37974;DHT22;23796;51.458;7.000;2022-07-09T01:16:12;18.20;99.90
37974;DHT22;23796;51.458;7.000;2022-07-09T01:18:43;18.20;99.90
37974;DHT22;23796;51.458;7.000;2022-07-09T01:21:08;18.20;99.90
37974;DHT22;23796;51.458;7.000;2022-07-09T01:23:36;18.20;99.90
37974;DHT22;23796;51.458;7.000;2022-07-09T01:26:02;18.10;99.90
37974;DHT22;23796;51.458;7.000;2022-07-09T01:28:28;18.10;99.90
37974;DHT22;23796;51.458;7.000;2022-07-09T01:30:56;18.10;99.90
37974;DHT22;23796;51.458;7.000;2022-07-09T01:33:21;18.10;99.90
37974;DHT22;23796;51.458;7.000;2022-07-09T01:35:49;18.00;99.90
37974;DHT22;23796;51.458;7.000;2022-07-09T01:38:15;18.00;99.90
37974;DHT22;23796;51.458;7.000;2022-07-09T01:40:42;18.00;99.90
37974;DHT22;23796;51.458;7.000;2022-07-09T01:43:08;17.90;99.90
37974;DHT22;23796;51.458;7.000;2022-07-09T01:45:34;18.00;99.90
37974;DHT22;23796;51.458;7.000;2022-07-09T01:47:59;18.10;99.90
37974;DHT22;23796;51.458;7.000;2022-07-09T01:50:27;18.20;99.90
37974;DHT22;23796;51.458;7.000;2022-07-09T01:52:53;18.30;99.90
37974;DHT22;23796;51.458;7.000;2022-07-09T01:55:21;18.30;99.90
37974;DHT22;23796;51.458;7.000;2022-07-09T01:57:46;18.40;99.90
37974;DHT22;23796;51.458;7.000;2022-07-09T02:00:12;18.40;99.90
37974;DHT22;23796;51.458;7.000;2022-07-09T02:02:40;18.30;99.90
37974;DHT22;23796;51.458;7.000;2022-07-09T02:05:06;18.30;99.90
37974;DHT22;23796;51.458;7.000;2022-07-09T02:07:32;18.30;99.90
37974;DHT22;23796;51.458;7.000;2022-07-09T02:09:58;18.20;99.90
37974;DHT22;23796;51.458;7.000;2022-07-09T02:12:25;18.10;99.90
37974;DHT22;23796;51.458;7.000;2022-07-09T02:14:51;18.10;99.90
37974;DHT22;23796;51.458;7.000;2022-07-09T02:17:17;18.00;99.90
37974;DHT22;23796;51.458;7.000;2022-07-09T02:19:42;18.00;99.90
37974;DHT22;23796;51.458;7.000;2022-07-09T02:22:08;18.00;99.90
37974;DHT22;23796;51.458;7.000;2022-07-09T02:24:36;18.00;99.90
37974;DHT22;23796;51.458;7.000;2022-07-09T02:27:02;18.00;99.90
37974;DHT22;23796;51.458;7.000;2022-07-09T02:29:28;18.10;99.90
37974;DHT22;23796;51.458;7.000;2022-07-09T02:31:53;18.10;99.90
37974;DHT22;23796;51.458;7.000;2022-07-09T02:34:21;18.10;99.90
37974;DHT22;23796;51.458;7.000;2022-07-09T02:36:47;18.20;99.90
37974;DHT22;23796;51.458;7.000;2022-07-09T02:39:18;18.20;99.90
37974;DHT22;23796;51.458;7.000;2022-07-09T02:41:45;18.20;99.90
37974;DHT22;23796;51.458;7.000;2022-07-09T02:44:11;18.20;99.90
37974;DHT22;23796;51.458;7.000;2022-07-09T02:46:37;18.20;99.90
37974;DHT22;23796;51.458;7.000;2022-07-09T02:49:02;18.20;99.90
37974;DHT22;23796;51.458;7.000;2022-07-09T02:51:29;18.20;99.90
37974;DHT22;23796;51.458;7.000;2022-07-09T02:53:54;18.20;99.90
37974;DHT22;23796;51.458;7.000;2022-07-09T02:56:20;18.20;99.90
37974;DHT22;23796;51.458;7.000;2022-07-09T02:58:46;18.10;99.90
37974;DHT22;23796;51.458;7.000;2022-07-09T03:01:11;18.10;99.90
37974;DHT22;23796;51.458;7.000;2022-07-09T03:03:37;18.10;99.90
37974;DHT22;23796;51.458;7.000;2022-07-09T03:06:05;18.10;99.90
37974;DHT22;23796;51.458;7.000;2022-07-09T03:08:33;18.00;99.90
37974;DHT22;23796;51.458;7.000;2022-07-09T03:10:59;18.10;99.90
37974;DHT22;23796;51.458;7.000;2022-07-09T03:13:27;18.10;99.90
37974;DHT22;23796;51.458;7.000;2022-07-09T03:15:56;18.10;99.90
37974;DHT22;23796;51.458;7.000;2022-07-09T03:18:24;18.10;99.90
37974;DHT22;23796;51.458;7.000;2022-07-09T03:20:50;18.00;99.90
37974;DHT22;23796;51.458;7.000;2022-07-09T03:23:16;18.00;99.90
37974;DHT22;23796;51.458;7.000;2022-07-09T03:25:42;18.00;99.90
37974;DHT22;23796;51.458;7.000;2022-07-09T03:28:10;18.00;99.90
37974;DHT22;23796;51.458;7.000;2022-07-09T03:30:36;18.00;99.90
37974;DHT22;23796;51.458;7.000;2022-07-09T03:33:02;18.00;99.90
37974;DHT22;23796;51.458;7.000;2022-07-09T03:35:28;18.00;99.90
37974;DHT22;23796;51.458;7.000;2022-07-09T03:37:53;18.00;99.90
37974;DHT22;23796;51.458;7.000;2022-07-09T03:40:22;18.00;99.90
37974;DHT22;23796;51.458;7.000;2022-07-09T03:42:48;18.10;99.90
37974;DHT22;23796;51.458;7.000;2022-07-09T03:45:13;18.10;99.90
37974;DHT22;23796;51.458;7.000;2022-07-09T03:47:41;18.10;99.90
37974;DHT22;23796;51.458;7.000;2022-07-09T03:50:10;18.00;99.90
37974;DHT22;23796;51.458;7.000;2022-07-09T03:52:38;18.00;99.90
37974;DHT22;23796;51.458;7.000;2022-07-09T03:55:04;18.00;99.90
37974;DHT22;23796;51.458;7.000;2022-07-09T03:57:29;18.00;99.90
37974;DHT22;23796;51.458;7.000;2022-07-09T03:59:58;17.90;99.90
37974;DHT22;23796;51.458;7.000;2022-07-09T04:02:26;17.90;99.90
37974;DHT22;23796;51.458;7.000;2022-07-09T04:04:55;17.90;99.90
37974;DHT22;23796;51.458;7.000;2022-07-09T04:07:22;17.80;99.90
37974;DHT22;23796;51.458;7.000;2022-07-09T04:09:54;17.80;99.90
37974;DHT22;23796;51.458;7.000;2022-07-09T04:12:22;17.80;99.90
37974;DHT22;23796;51.458;7.000;2022-07-09T04:14:50;17.80;99.90
37974;DHT22;23796;51.458;7.000;2022-07-09T04:17:22;17.80;99.90
37974;DHT22;23796;51.458;7.000;2022-07-09T04:19:48;17.80;99.90
37974;DHT22;23796;51.458;7.000;2022-07-09T04:22:13;17.80;99.90
37974;DHT22;23796;51.458;7.000;2022-07-09T04:24:39;17.80;99.90
37974;DHT22;23796;51.458;7.000;2022-07-09T04:27:10;17.70;99.90
37974;DHT22;23796;51.458;7.000;2022-07-09T04:29:35;17.70;99.90
37974;DHT22;23796;51.458;7.000;2022-07-09T04:32:03;17.70;99.90
37974;DHT22;23796;51.458;7.000;2022-07-09T04:34:29;17.80;99.90
37974;DHT22;23796;51.458;7.000;2022-07-09T04:36:55;17.90;99.90
37974;DHT22;23796;51.458;7.000;2022-07-09T04:39:21;18.10;99.90
37974;DHT22;23796;51.458;7.000;2022-07-09T04:41:52;18.20;99.90
37974;DHT22;23796;51.458;7.000;2022-07-09T04:44:17;18.10;99.90
37974;DHT22;23796;51.458;7.000;2022-07-09T04:46:45;17.90;99.90
37974;DHT22;23796;51.458;7.000;2022-07-09T04:49:14;17.80;99.90
37974;DHT22;23796;51.458;7.000;2022-07-09T04:51:42;17.70;99.90
37974;DHT22;23796;51.458;7.000;2022-07-09T04:54:10;17.60;99.90
37974;DHT22;23796;51.458;7.000;2022-07-09T04:56:35;17.60;99.90
37974;DHT22;23796;51.458;7.000;2022-07-09T04:59:01;17.60;99.90
37974;DHT22;23796;51.458;7.000;2022-07-09T05:01:28;17.60;99.90
37974;DHT22;23796;51.458;7.000;2022-07-09T05:03:55;17.60;99.90
37974;DHT22;23796;51.458;7.000;2022-07-09T05:06:21;17.60;99.90
37974;DHT22;23796;51.458;7.000;2022-07-09T05:08:47;17.60;99.90
37974;DHT22;23796;51.458;7.000;2022-07-09T05:11:13;17.60;99.90
37974;DHT22;23796;51.458;7.000;2022-07-09T05:13:39;17.60;99.90
37974;DHT22;23796;51.458;7.000;2022-07-09T05:16:07;17.60;99.90
37974;DHT22;23796;51.458;7.000;2022-07-09T05:18:33;17.60;99.90
37974;DHT22;23796;51.458;7.000;2022-07-09T05:21:01;17.60;99.90
37974;DHT22;23796;51.458;7.000;2022-07-09T05:23:27;17.80;99.90
37974;DHT22;23796;51.458;7.000;2022-07-09T05:25:55;17.90;99.90
37974;DHT22;23796;51.458;7.000;2022-07-09T05:28:21;18.00;99.90
37974;DHT22;23796;51.458;7.000;2022-07-09T05:30:46;18.00;99.90
37974;DHT22;23796;51.458;7.000;2022-07-09T05:33:14;18.20;99.90
37974;DHT22;23796;51.458;7.000;2022-07-09T05:35:40;18.30;99.90
37974;DHT22;23796;51.458;7.000;2022-07-09T05:38:08;18.30;99.90
37974;DHT22;23796;51.458;7.000;2022-07-09T05:40:33;18.40;99.90
37974;DHT22;23796;51.458;7.000;2022-07-09T05:43:01;18.50;99.90
37974;DHT22;23796;51.458;7.000;2022-07-09T05:45:27;18.60;99.90
37974;DHT22;23796;51.458;7.000;2022-07-09T05:47:53;18.70;99.90
37974;DHT22;23796;51.458;7.000;2022-07-09T05:50:18;18.80;99.90
37974;DHT22;23796;51.458;7.000;2022-07-09T05:52:46;18.70;99.90
37974;DHT22;23796;51.458;7.000;2022-07-09T05:55:16;18.60;99.90
37974;DHT22;23796;51.458;7.000;2022-07-09T05:57:44;18.50;99.90
37974;DHT22;23796;51.458;7.000;2022-07-09T06:00:14;18.50;99.90
37974;DHT22;23796;51.458;7.000;2022-07-09T06:02:40;18.60;99.90
37974;DHT22;23796;51.458;7.000;2022-07-09T06:05:08;18.70;99.90
37974;DHT22;23796;51.458;7.000;2022-07-09T06:07:34;18.70;99.90
37974;DHT22;23796;51.458;7.000;2022-07-09T06:10:00;18.70;99.90
37974;DHT22;23796;51.458;7.000;2022-07-09T06:12:28;18.70;99.90
37974;DHT22;23796;51.458;7.000;2022-07-09T06:14:53;18.70;99.90
37974;DHT22;23796;51.458;7.000;2022-07-09T06:17:21;18.80;99.90
37974;DHT22;23796;51.458;7.000;2022-07-09T06:19:47;19.00;99.90
37974;DHT22;23796;51.458;7.000;2022-07-09T06:22:13;19.00;99.90
37974;DHT22;23796;51.458;7.000;2022-07-09T06:24:40;18.90;99.90
37974;DHT22;23796;51.458;7.000;2022-07-09T06:27:06;18.90;99.90
37974;DHT22;23796;51.458;7.000;2022-07-09T06:29:32;19.00;99.90
37974;DHT22;23796;51.458;7.000;2022-07-09T06:31:57;19.20;99.90
37974;DHT22;23796;51.458;7.000;2022-07-09T06:34:26;19.30;99.90
37974;DHT22;23796;51.458;7.000;2022-07-09T06:36:51;19.60;99.90
37974;DHT22;23796;51.458;7.000;2022-07-09T06:39:17;19.60;99.90
37974;DHT22;23796;51.458;7.000;2022-07-09T06:42:05;19.50;99.90
37974;DHT22;23796;51.458;7.000;2022-07-09T06:44:32;19.50;99.90
37974;DHT22;23796;51.458;7.000;2022-07-09T06:46:59;19.40;99.90
37974;DHT22;23796;51.458;7.000;2022-07-09T06:49:28;19.30;99.90
37974;DHT22;23796;51.458;7.000;2022-07-09T06:51:53;19.40;99.90
37974;DHT22;23796;51.458;7.000;2022-07-09T06:54:19;19.40;99.90
37974;DHT22;23796;51.458;7.000;2022-07-09T06:56:47;19.40;99.90
37974;DHT22;23796;51.458;7.000;2022-07-09T06:59:15;19.50;99.90
37974;DHT22;23796;51.458;7.000;2022-07-09T07:01:44;19.60;99.90
37974;DHT22;23796;51.458;7.000;2022-07-09T07:04:12;19.80;99.90
37974;DHT22;23796;51.458;7.000;2022-07-09T07:06:40;20.10;99.90
37974;DHT22;23796;51.458;7.000;2022-07-09T07:09:06;20.30;99.90
37974;DHT22;23796;51.458;7.000;2022-07-09T07:11:34;20.20;99.90
37974;DHT22;23796;51.458;7.000;2022-07-09T07:14:00;20.10;99.90
37974;DHT22;23796;51.458;7.000;2022-07-09T07:16:26;19.90;99.90
37974;DHT22;23796;51.458;7.000;2022-07-09T07:18:54;19.90;99.90
37974;DHT22;23796;51.458;7.000;2022-07-09T07:21:20;20.10;99.90
37974;DHT22;23796;51.458;7.000;2022-07-09T07:23:46;20.10;99.90
37974;DHT22;23796;51.458;7.000;2022-07-09T07:26:11;20.30;99.90
37974;DHT22;23796;51.458;7.000;2022-07-09T07:28:43;20.50;99.90
37974;DHT22;23796;51.458;7.000;2022-07-09T07:31:09;20.60;99.90
37974;DHT22;23796;51.458;7.000;2022-07-09T07:33:35;20.80;99.90
37974;DHT22;23796;51.458;7.000;2022-07-09T07:36:00;20.90;99.90
37974;DHT22;23796;51.458;7.000;2022-07-09T07:38:28;20.80;99.90
37974;DHT22;23796;51.458;7.000;2022-07-09T07:40:54;20.80;99.90
37974;DHT22;23796;51.458;7.000;2022-07-09T07:43:22;20.70;99.90
37974;DHT22;23796;51.458;7.000;2022-07-09T07:45:48;20.60;99.90
37974;DHT22;23796;51.458;7.000;2022-07-09T07:48:16;20.50;99.90
37974;DHT22;23796;51.458;7.000;2022-07-09T07:50:41;20.40;99.90
37974;DHT22;23796;51.458;7.000;2022-07-09T07:53:07;20.40;99.90
37974;DHT22;23796;51.458;7.000;2022-07-09T07:55:33;20.50;99.90
37974;DHT22;23796;51.458;7.000;2022-07-09T07:57:59;20.40;99.90
37974;DHT22;23796;51.458;7.000;2022-07-09T08:00:24;20.50;99.90
37974;DHT22;23796;51.458;7.000;2022-07-09T08:02:54;20.50;99.90
37974;DHT22;23796;51.458;7.000;2022-07-09T08:05:20;20.70;99.90
37974;DHT22;23796;51.458;7.000;2022-07-09T08:07:46;21.00;99.90
37974;DHT22;23796;51.458;7.000;2022-07-09T08:10:11;21.30;99.90
37974;DHT22;23796;51.458;7.000;2022-07-09T08:12:37;21.50;99.90
37974;DHT22;23796;51.458;7.000;2022-07-09T08:15:03;21.40;99.90
37974;DHT22;23796;51.458;7.000;2022-07-09T08:17:29;21.50;99.90
37974;DHT22;23796;51.458;7.000;2022-07-09T08:19:57;21.50;99.90
37974;DHT22;23796;51.458;7.000;2022-07-09T08:22:25;21.50;99.90
37974;DHT22;23796;51.458;7.000;2022-07-09T08:24:51;21.60;99.90
37974;DHT22;23796;51.458;7.000;2022-07-09T08:27:16;21.70;99.90
37974;DHT22;23796;51.458;7.000;2022-07-09T08:29:42;21.80;99.90
37974;DHT22;23796;51.458;7.000;2022-07-09T08:32:11;21.90;99.90
37974;DHT22;23796;51.458;7.000;2022-07-09T08:34:36;22.10;99.90
37974;DHT22;23796;51.458;7.000;2022-07-09T08:37:02;22.30;99.90
37974;DHT22;23796;51.458;7.000;2022-07-09T08:39:30;22.20;99.90
37974;DHT22;23796;51.458;7.000;2022-07-09T08:41:56;22.20;99.90
37974;DHT22;23796;51.458;7.000;2022-07-09T08:44:26;22.50;99.90
37974;DHT22;23796;51.458;7.000;2022-07-09T08:46:55;22.30;99.90
37974;DHT22;23796;51.458;7.000;2022-07-09T08:49:22;21.90;99.90
37974;DHT22;23796;51.458;7.000;2022-07-09T08:51:49;21.90;99.90
37974;DHT22;23796;51.458;7.000;2022-07-09T08:54:19;21.90;99.90
37974;DHT22;23796;51.458;7.000;2022-07-09T08:56:45;21.80;99.90
37974;DHT22;23796;51.458;7.000;2022-07-09T08:59:11;21.80;99.90
37974;DHT22;23796;51.458;7.000;2022-07-09T09:01:36;21.90;99.90
37974;DHT22;23796;51.458;7.000;2022-07-09T09:04:02;21.90;99.90
37974;DHT22;23796;51.458;7.000;2022-07-09T09:06:35;22.10;99.90
37974;DHT22;23796;51.458;7.000;2022-07-09T09:09:01;22.50;99.90
37974;DHT22;23796;51.458;7.000;2022-07-09T09:11:29;22.80;99.90
37974;DHT22;23796;51.458;7.000;2022-07-09T09:13:56;23.00;99.90
37974;DHT22;23796;51.458;7.000;2022-07-09T09:16:23;22.80;99.90
37974;DHT22;23796;51.458;7.000;2022-07-09T09:18:55;22.80;99.90
37974;DHT22;23796;51.458;7.000;2022-07-09T09:21:29;22.80;99.90
37974;DHT22;23796;51.458;7.000;2022-07-09T09:23:57;22.80;99.90
37974;DHT22;23796;51.458;7.000;2022-07-09T09:26:27;22.70;99.90
37974;DHT22;23796;51.458;7.000;2022-07-09T09:29:03;22.90;99.90
37974;DHT22;23796;51.458;7.000;2022-07-09T09:31:34;22.90;99.90
37974;DHT22;23796;51.458;7.000;2022-07-09T09:34:10;22.90;99.90
37974;DHT22;23796;51.458;7.000;2022-07-09T09:41:42;24.10;99.90
37974;DHT22;23796;51.458;7.000;2022-07-09T09:44:34;24.30;99.90
37974;DHT22;23796;51.458;7.000;2022-07-09T09:47:07;24.00;99.90
37974;DHT22;23796;51.458;7.000;2022-07-09T09:49:34;24.10;99.90
37974;DHT22;23796;51.458;7.000;2022-07-09T09:52:07;24.20;99.90
37974;DHT22;23796;51.458;7.000;2022-07-09T09:54:40;24.30;99.90
37974;DHT22;23796;51.458;7.000;2022-07-09T09:57:11;24.00;99.90
37974;DHT22;23796;51.458;7.000;2022-07-09T09:59:42;23.80;99.90
37974;DHT22;23796;51.458;7.000;2022-07-09T10:02:10;23.60;99.90
37974;DHT22;23796;51.458;7.000;2022-07-09T10:04:37;23.80;99.90
37974;DHT22;23796;51.458;7.000;2022-07-09T10:07:06;23.90;99.90
37974;DHT22;23796;51.458;7.000;2022-07-09T10:09:34;23.70;99.90
37974;DHT22;23796;51.458;7.000;2022-07-09T10:12:00;23.80;99.90
37974;DHT22;23796;51.458;7.000;2022-07-09T10:16:54;23.60;99.90
37974;DHT22;23796;51.458;7.000;2022-07-09T10:19:30;23.50;99.90
37974;DHT22;23796;51.458;7.000;2022-07-09T10:22:01;23.70;99.90
37974;DHT22;23796;51.458;7.000;2022-07-09T10:24:30;23.60;99.90
37974;DHT22;23796;51.458;7.000;2022-07-09T10:27:16;23.80;99.90
37974;DHT22;23796;51.458;7.000;2022-07-09T10:32:30;24.00;99.90
37974;DHT22;23796;51.458;7.000;2022-07-09T10:35:03;24.50;99.90
37974;DHT22;23796;51.458;7.000;2022-07-09T10:42:44;24.90;99.90
37974;DHT22;23796;51.458;7.000;2022-07-09T10:45:23;25.00;99.90
37974;DHT22;23796;51.458;7.000;2022-07-09T10:47:53;25.00;99.90
37974;DHT22;23796;51.458;7.000;2022-07-09T10:50:19;25.40;99.90
37974;DHT22;23796;51.458;7.000;2022-07-09T10:52:46;25.30;99.90
37974;DHT22;23796;51.458;7.000;2022-07-09T10:55:12;25.30;99.90
37974;DHT22;23796;51.458;7.000;2022-07-09T10:57:40;25.30;99.90
37974;DHT22;23796;51.458;7.000;2022-07-09T11:00:07;25.20;99.90
37974;DHT22;23796;51.458;7.000;2022-07-09T11:02:36;24.80;99.90
37974;DHT22;23796;51.458;7.000;2022-07-09T11:05:01;24.90;99.90
37974;DHT22;23796;51.458;7.000;2022-07-09T11:07:27;24.70;99.90
37974;DHT22;23796;51.458;7.000;2022-07-09T11:09:56;25.10;99.90
37974;DHT22;23796;51.458;7.000;2022-07-09T11:12:22;25.00;99.90
37974;DHT22;23796;51.458;7.000;2022-07-09T11:14:51;24.60;99.90
37974;DHT22;23796;51.458;7.000;2022-07-09T11:17:19;24.50;99.90
37974;DHT22;23796;51.458;7.000;2022-07-09T11:19:45;24.30;99.90
37974;DHT22;23796;51.458;7.000;2022-07-09T11:22:17;24.20;99.90
37974;DHT22;23796;51.458;7.000;2022-07-09T11:24:43;24.50;99.90
37974;DHT22;23796;51.458;7.000;2022-07-09T11:27:09;24.90;99.90
37974;DHT22;23796;51.458;7.000;2022-07-09T11:29:37;24.90;99.90
37974;DHT22;23796;51.458;7.000;2022-07-09T11:32:15;25.40;99.90
37974;DHT22;23796;51.458;7.000;2022-07-09T11:34:50;25.00;99.90
37974;DHT22;23796;51.458;7.000;2022-07-09T11:37:22;24.60;99.90
37974;DHT22;23796;51.458;7.000;2022-07-09T11:39:53;24.40;99.90
37974;DHT22;23796;51.458;7.000;2022-07-09T11:42:19;24.40;99.90
37974;DHT22;23796;51.458;7.000;2022-07-09T11:44:59;24.10;99.90
37974;DHT22;23796;51.458;7.000;2022-07-09T11:47:38;24.30;99.90
37974;DHT22;23796;51.458;7.000;2022-07-09T11:50:10;24.50;99.90
37974;DHT22;23796;51.458;7.000;2022-07-09T11:52:42;24.50;99.90
37974;DHT22;23796;51.458;7.000;2022-07-09T11:55:10;24.30;99.90
37974;DHT22;23796;51.458;7.000;2022-07-09T11:57:37;24.00;99.90
37974;DHT22;23796;51.458;7.000;2022-07-09T12:00:05;23.90;99.90
37974;DHT22;23796;51.458;7.000;2022-07-09T12:02:31;23.70;99.90
37974;DHT22;23796;51.458;7.000;2022-07-09T12:05:02;23.50;99.90
37974;DHT22;23796;51.458;7.000;2022-07-09T12:07:29;23.30;99.90
37974;DHT22;23796;51.458;7.000;2022-07-09T12:10:06;23.10;99.90
37974;DHT22;23796;51.458;7.000;2022-07-09T12:12:33;23.10;99.90
37974;DHT22;23796;51.458;7.000;2022-07-09T12:15:00;23.10;99.90
37974;DHT22;23796;51.458;7.000;2022-07-09T12:17:30;22.90;99.90
37974;DHT22;23796;51.458;7.000;2022-07-09T12:19:57;22.60;99.90
37974;DHT22;23796;51.458;7.000;2022-07-09T12:22:24;22.30;99.90
37974;DHT22;23796;51.458;7.000;2022-07-09T12:24:50;22.20;99.90
37974;DHT22;23796;51.458;7.000;2022-07-09T12:27:16;22.10;99.90
37974;DHT22;23796;51.458;7.000;2022-07-09T12:29:45;21.70;99.90
37974;DHT22;23796;51.458;7.000;2022-07-09T12:32:13;21.50;99.90
37974;DHT22;23796;51.458;7.000;2022-07-09T12:34:39;21.50;99.90
37974;DHT22;23796;51.458;7.000;2022-07-09T12:37:05;21.50;99.90
37974;DHT22;23796;51.458;7.000;2022-07-09T12:39:31;21.60;99.90
37974;DHT22;23796;51.458;7.000;2022-07-09T12:41:56;21.60;99.90
37974;DHT22;23796;51.458;7.000;2022-07-09T12:44:26;21.50;99.90
37974;DHT22;23796;51.458;7.000;2022-07-09T12:46:51;21.50;99.90
37974;DHT22;23796;51.458;7.000;2022-07-09T12:49:17;21.40;99.90
37974;DHT22;23796;51.458;7.000;2022-07-09T12:51:43;21.30;99.90
37974;DHT22;23796;51.458;7.000;2022-07-09T12:54:09;21.20;99.90
37974;DHT22;23796;51.458;7.000;2022-07-09T12:56:37;20.60;99.90
37974;DHT22;23796;51.458;7.000;2022-07-09T12:59:05;20.00;99.90
37974;DHT22;23796;51.458;7.000;2022-07-09T13:01:31;19.70;99.90
37974;DHT22;23796;51.458;7.000;2022-07-09T13:03:56;19.70;99.90
37974;DHT22;23796;51.458;7.000;2022-07-09T13:06:22;19.80;99.90
37974;DHT22;23796;51.458;7.000;2022-07-09T13:09:04;19.90;99.90
37974;DHT22;23796;51.458;7.000;2022-07-09T13:11:30;19.90;99.90
37974;DHT22;23796;51.458;7.000;2022-07-09T13:13:56;19.90;99.90
37974;DHT22;23796;51.458;7.000;2022-07-09T13:16:24;20.10;99.90
37974;DHT22;23796;51.458;7.000;2022-07-09T13:18:50;20.50;99.90
37974;DHT22;23796;51.458;7.000;2022-07-09T13:21:20;20.80;99.90
37974;DHT22;23796;51.458;7.000;2022-07-09T13:23:48;20.90;99.90
37974;DHT22;23796;51.458;7.000;2022-07-09T13:26:19;21.00;99.90
37974;DHT22;23796;51.458;7.000;2022-07-09T13:28:45;21.00;99.90
37974;DHT22;23796;51.458;7.000;2022-07-09T13:31:11;21.20;99.90
37974;DHT22;23796;51.458;7.000;2022-07-09T13:33:36;21.60;99.90
37974;DHT22;23796;51.458;7.000;2022-07-09T13:36:03;21.60;99.90
37974;DHT22;23796;51.458;7.000;2022-07-09T13:38:32;21.60;99.90
37974;DHT22;23796;51.458;7.000;2022-07-09T13:40:58;21.60;99.90
37974;DHT22;23796;51.458;7.000;2022-07-09T13:43:24;21.60;99.90
37974;DHT22;23796;51.458;7.000;2022-07-09T13:45:52;21.70;99.90
37974;DHT22;23796;51.458;7.000;2022-07-09T13:48:20;21.90;99.90
37974;DHT22;23796;51.458;7.000;2022-07-09T13:50:45;21.90;99.90
37974;DHT22;23796;51.458;7.000;2022-07-09T13:53:11;21.90;99.90
37974;DHT22;23796;51.458;7.000;2022-07-09T13:55:37;22.00;99.90
37974;DHT22;23796;51.458;7.000;2022-07-09T13:58:02;22.30;99.90
37974;DHT22;23796;51.458;7.000;2022-07-09T14:00:28;22.60;99.90
37974;DHT22;23796;51.458;7.000;2022-07-09T14:02:54;22.90;99.90
37974;DHT22;23796;51.458;7.000;2022-07-09T14:05:22;22.80;99.90
37974;DHT22;23796;51.458;7.000;2022-07-09T14:07:50;23.00;99.90
37974;DHT22;23796;51.458;7.000;2022-07-09T14:10:18;22.90;99.90
37974;DHT22;23796;51.458;7.000;2022-07-09T14:12:44;22.70;99.90
37974;DHT22;23796;51.458;7.000;2022-07-09T14:15:13;22.50;99.90
37974;DHT22;23796;51.458;7.000;2022-07-09T14:17:41;22.50;99.90
37974;DHT22;23796;51.458;7.000;2022-07-09T14:20:07;22.40;99.90
37974;DHT22;23796;51.458;7.000;2022-07-09T14:22:33;22.60;99.90
37974;DHT22;23796;51.458;7.000;2022-07-09T14:24:59;22.80;99.90
37974;DHT22;23796;51.458;7.000;2022-07-09T14:27:25;23.10;99.90
37974;DHT22;23796;51.458;7.000;2022-07-09T14:29:55;23.50;99.90
37974;DHT22;23796;51.458;7.000;2022-07-09T14:32:20;23.70;99.90
37974;DHT22;23796;51.458;7.000;2022-07-09T14:34:49;23.40;99.90
37974;DHT22;23796;51.458;7.000;2022-07-09T14:37:15;23.10;99.90
37974;DHT22;23796;51.458;7.000;2022-07-09T14:39:43;23.00;99.90
37974;DHT22;23796;51.458;7.000;2022-07-09T14:42:09;23.20;99.90
37974;DHT22;23796;51.458;7.000;2022-07-09T14:44:35;23.20;99.90
37974;DHT22;23796;51.458;7.000;2022-07-09T14:47:00;23.50;99.90
37974;DHT22;23796;51.458;7.000;2022-07-09T14:49:28;23.30;99.90
37974;DHT22;23796;51.458;7.000;2022-07-09T14:51:57;23.40;99.90
37974;DHT22;23796;51.458;7.000;2022-07-09T14:54:23;23.50;99.90
37974;DHT22;23796;51.458;7.000;2022-07-09T14:56:51;23.60;99.90
37974;DHT22;23796;51.458;7.000;2022-07-09T14:59:19;23.70;99.90
37974;DHT22;23796;51.458;7.000;2022-07-09T15:01:46;23.70;99.90
37974;DHT22;23796;51.458;7.000;2022-07-09T15:04:12;23.90;99.90
37974;DHT22;23796;51.458;7.000;2022-07-09T15:06:38;24.10;99.90
37974;DHT22;23796;51.458;7.000;2022-07-09T15:09:08;24.10;99.90
37974;DHT22;23796;51.458;7.000;2022-07-09T15:11:35;24.20;99.90
37974;DHT22;23796;51.458;7.000;2022-07-09T15:14:03;24.40;99.90
37974;DHT22;23796;51.458;7.000;2022-07-09T15:16:31;24.40;99.90
37974;DHT22;23796;51.458;7.000;2022-07-09T15:18:57;24.00;99.90
37974;DHT22;23796;51.458;7.000;2022-07-09T15:21:24;23.80;99.90
37974;DHT22;23796;51.458;7.000;2022-07-09T15:23:53;23.80;99.90
37974;DHT22;23796;51.458;7.000;2022-07-09T15:26:19;23.90;99.90
37974;DHT22;23796;51.458;7.000;2022-07-09T15:28:47;23.80;99.90
37974;DHT22;23796;51.458;7.000;2022-07-09T15:31:12;23.50;99.90
37974;DHT22;23796;51.458;7.000;2022-07-09T15:33:38;23.50;99.90
37974;DHT22;23796;51.458;7.000;2022-07-09T15:36:04;23.60;99.90
37974;DHT22;23796;51.458;7.000;2022-07-09T15:38:30;23.60;99.90
37974;DHT22;23796;51.458;7.000;2022-07-09T15:40:55;23.60;99.90
37974;DHT22;23796;51.458;7.000;2022-07-09T15:43:21;23.60;99.90
37974;DHT22;23796;51.458;7.000;2022-07-09T15:45:47;23.80;99.90